Shenandoah, Ohio
Current Conditions -  °F | °C
As of 9:52 PM on Sunday 23 Nov 2014 (Local Time) from KMFD Reporting Station
Light Rain Light Rain  
Wind Chill: 53°   Ceiling: 1900
Heat Index: 53°   Visibility: 10mi
Dew Point: 50°   Wind: 23mph
Humidity: 89%   Direction: 140°SE
Pressure: 29.42"   Gusts: 39mph
Location:  41.0314°N, 82.4861°W
Report Text: KMFD 240252Z 14020G34KT 10SM -RA SCT012 OVC019 12/10 A2942 RMK AO2 PK WND 14034/0248 PRESFR SLP963 P0003 60014 T01170100 58059
Loading
Personal Weather Stations






























Interactive Weather Map New forecast layout! Learn more

10-Day Weather Forecast

Advertisements
Track Severe Weather on mobile